createdAt,value
2019-01-23T00:00:45.125Z,95943.00
2019-01-23T00:03:14.491Z,95944.00
2019-01-23T00:05:43.868Z,95931.00
2019-01-23T00:08:13.622Z,95940.00
2019-01-23T00:10:43.010Z,95946.00
2019-01-23T00:13:12.372Z,95936.00
2019-01-23T00:15:41.929Z,95924.00
2019-01-23T00:18:11.344Z,95938.00
2019-01-23T00:20:40.731Z,95945.00
2019-01-23T00:23:10.098Z,95937.00
2019-01-23T00:25:39.457Z,95934.00
2019-01-23T00:28:08.924Z,95941.00
2019-01-23T00:30:38.716Z,95937.00
2019-01-23T00:33:08.072Z,95938.00
2019-01-23T00:35:37.430Z,95916.00
2019-01-23T00:38:06.905Z,95927.00
2019-01-23T00:40:36.264Z,95923.00
2019-01-23T00:43:05.724Z,95921.00
2019-01-23T00:45:35.120Z,95915.00
2019-01-23T00:48:04.634Z,95917.00
2019-01-23T00:50:34.000Z,95927.00
2019-01-23T00:53:03.415Z,95906.00
2019-01-23T00:55:32.772Z,95899.00
2019-01-23T00:58:02.132Z,95896.00
2019-01-23T01:00:31.593Z,95904.00
2019-01-23T01:03:01.030Z,95891.00
2019-01-23T01:05:30.471Z,95899.00
2019-01-23T01:07:59.846Z,95910.00
2019-01-23T01:10:29.285Z,95899.00
2019-01-23T01:12:58.646Z,95903.00
2019-01-23T01:15:28.044Z,95901.00
2019-01-23T01:17:57.417Z,95904.00
2019-01-23T01:20:26.799Z,95892.00
2019-01-23T01:22:56.195Z,95906.00
2019-01-23T01:25:25.564Z,95895.00
2019-01-23T01:27:54.923Z,95903.00
2019-01-23T01:30:25.691Z,95898.00
2019-01-23T01:32:56.520Z,95886.00
2019-01-23T01:35:25.881Z,95883.00
2019-01-23T01:37:55.639Z,95884.00
2019-01-23T01:40:24.987Z,95896.00
2019-01-23T01:42:54.362Z,95897.00
2019-01-23T01:45:23.819Z,95878.00
2019-01-23T01:47:53.175Z,95875.00
2019-01-23T01:50:22.597Z,95868.00
2019-01-23T01:52:51.973Z,95871.00
2019-01-23T02:14:46.942Z,95865.00
2019-01-23T02:17:16.325Z,95871.00
2019-01-23T02:19:45.672Z,95857.00
2019-01-23T02:22:15.059Z,95853.00
2019-01-23T02:24:44.486Z,95846.00
2019-01-23T02:27:13.925Z,95832.00
2019-01-23T02:29:43.293Z,95832.00
2019-01-23T02:32:12.661Z,95838.00
2019-01-23T02:34:42.619Z,95829.00
2019-01-23T02:37:12.364Z,95838.00
2019-01-23T02:39:41.701Z,95827.00
2019-01-23T02:42:11.095Z,95823.00
2019-01-23T02:44:40.485Z,95820.00
2019-01-23T02:47:09.860Z,95832.00
2019-01-23T02:49:39.233Z,95825.00
2019-01-23T02:52:08.634Z,95805.00
2019-01-23T02:54:37.982Z,95810.00
2019-01-23T02:57:07.372Z,95800.00
2019-01-23T02:59:37.123Z,95803.00
2019-01-23T03:02:07.238Z,95809.00
2019-01-23T03:04:36.579Z,95799.00
2019-01-23T03:07:05.965Z,95799.00
2019-01-23T03:09:35.326Z,95813.00
2019-01-23T03:12:05.054Z,95795.00
2019-01-23T03:14:34.431Z,95810.00
2019-01-23T03:17:03.865Z,95787.00
2019-01-23T03:19:33.491Z,95791.00
2019-01-23T03:22:03.225Z,95788.00
2019-01-23T03:24:32.591Z,95788.00
2019-01-23T03:27:01.947Z,95781.00
2019-01-23T03:29:31.334Z,95777.00
2019-01-23T03:32:00.703Z,95774.00
2019-01-23T03:34:30.061Z,95782.00
2019-01-23T03:36:59.779Z,95776.00
2019-01-23T03:39:29.145Z,95775.00
2019-01-23T03:41:58.500Z,95779.00
2019-01-23T03:44:28.192Z,95782.00
2019-01-23T03:46:57.546Z,95784.00
2019-01-23T03:49:26.927Z,95777.00
2019-01-23T03:51:56.373Z,95775.00
2019-01-23T03:54:25.735Z,95778.00
2019-01-23T03:56:55.109Z,95779.00
2019-01-23T03:59:24.530Z,95769.00
2019-01-23T04:01:53.879Z,95757.00
2019-01-23T04:04:23.260Z,95758.00
2019-01-23T04:06:53.062Z,95763.00
2019-01-23T04:09:22.420Z,95756.00
2019-01-23T04:11:51.790Z,95748.00
2019-01-23T04:14:21.251Z,95742.00
2019-01-23T04:16:50.615Z,95743.00
2019-01-23T04:19:19.986Z,95756.00
2019-01-23T04:21:49.413Z,95751.00
2019-01-23T04:24:18.766Z,95737.00
2019-01-23T04:26:48.133Z,95746.00
2019-01-23T04:29:18.116Z,95750.00
2019-01-23T04:31:47.595Z,95744.00
2019-01-23T04:34:16.952Z,95745.00
2019-01-23T04:36:46.325Z,95737.00
2019-01-23T04:39:17.173Z,95738.00
2019-01-23T04:41:46.568Z,95733.00
2019-01-23T04:44:15.963Z,95731.00
2019-01-23T04:46:45.361Z,95747.00
2019-01-23T04:49:14.726Z,95740.00
2019-01-23T04:51:51.709Z,95723.00
2019-01-23T04:54:21.054Z,95734.00
2019-01-23T04:56:50.414Z,95737.00
2019-01-23T04:59:19.780Z,95726.00
2019-01-23T05:01:49.163Z,95746.00
2019-01-23T05:04:18.511Z,95721.00
2019-01-23T05:06:47.896Z,95745.00
2019-01-23T05:09:17.254Z,95728.00
2019-01-23T05:11:46.622Z,95730.00
2019-01-23T05:14:16.011Z,95744.00
2019-01-23T05:16:45.397Z,95733.00
2019-01-23T05:19:14.738Z,95736.00
2019-01-23T05:21:44.194Z,95726.00
2019-01-23T05:24:13.551Z,95733.00
2019-01-23T05:26:42.902Z,95729.00
2019-01-23T05:29:12.273Z,95731.00
2019-01-23T05:31:41.640Z,95723.00
2019-01-23T05:34:10.996Z,95728.00
2019-01-23T05:36:40.713Z,95727.00
2019-01-23T05:39:10.102Z,95722.00
2019-01-23T05:41:39.775Z,95730.00
2019-01-23T05:44:09.176Z,95721.00
2019-01-23T05:46:38.530Z,95716.00
2019-01-23T05:49:07.892Z,95716.00
2019-01-23T05:51:37.273Z,95725.00
2019-01-23T05:54:06.584Z,95716.00
2019-01-23T05:56:35.945Z,95732.00
2019-01-23T05:59:05.419Z,95722.00
2019-01-23T06:01:34.784Z,95717.00
2019-01-23T06:04:04.211Z,95707.00
2019-01-23T06:06:33.605Z,95714.00
2019-01-23T06:09:03.835Z,95710.00
2019-01-23T06:11:33.185Z,95703.00
2019-01-23T06:14:02.557Z,95730.00
2019-01-23T06:16:31.943Z,95714.00
2019-01-23T06:19:01.336Z,95705.00
2019-01-23T06:21:31.045Z,95717.00
2019-01-23T06:24:00.405Z,95710.00
2019-01-23T06:26:29.786Z,95718.00
2019-01-23T06:28:59.154Z,95725.00
2019-01-23T06:31:28.503Z,95706.00
2019-01-23T06:33:57.878Z,95701.00
2019-01-23T06:36:27.250Z,95719.00
2019-01-23T06:38:56.607Z,95714.00
2019-01-23T06:41:25.967Z,95705.00
2019-01-23T06:43:56.209Z,95709.00
2019-01-23T06:46:25.556Z,95706.00
2019-01-23T06:48:55.044Z,95719.00
2019-01-23T06:51:24.405Z,95721.00
2019-01-23T06:53:53.747Z,95720.00
2019-01-23T06:56:23.101Z,95711.00
2019-01-23T06:58:52.465Z,95714.00
2019-01-23T07:01:21.828Z,95705.00
2019-01-23T07:03:51.166Z,95700.00
2019-01-23T07:06:20.985Z,95705.00
2019-01-23T07:08:50.355Z,95711.00
2019-01-23T07:11:19.720Z,95708.00
2019-01-23T07:13:49.069Z,95699.00
2019-01-23T07:16:18.428Z,95702.00
2019-01-23T07:18:47.800Z,95699.00
2019-01-23T07:21:17.204Z,95692.00
2019-01-23T07:23:46.551Z,95704.00
2019-01-23T07:26:15.899Z,95698.00
2019-01-23T07:28:49.123Z,95709.00
2019-01-23T07:31:19.062Z,95703.00
2019-01-23T07:33:48.426Z,95715.00
2019-01-23T07:36:17.815Z,95711.00
2019-01-23T07:38:47.153Z,95702.00
2019-01-23T07:41:16.506Z,95709.00
2019-01-23T07:43:48.019Z,95715.00
2019-01-23T07:46:17.960Z,95701.00
2019-01-23T07:48:47.331Z,95706.00
2019-01-23T07:51:16.737Z,95720.00
2019-01-23T07:53:46.119Z,95711.00
2019-01-23T07:56:15.493Z,95697.00
2019-01-23T07:58:44.875Z,95706.00
2019-01-23T08:01:14.247Z,95714.00
2019-01-23T08:03:43.633Z,95711.00
2019-01-23T08:06:13.109Z,95715.00
2019-01-23T08:08:42.476Z,95720.00
2019-01-23T08:11:11.843Z,95700.00
2019-01-23T08:13:41.258Z,95714.00
2019-01-23T08:16:10.746Z,95705.00
2019-01-23T08:18:40.173Z,95700.00
2019-01-23T08:21:09.557Z,95717.00
2019-01-23T08:23:38.912Z,95720.00
2019-01-23T08:26:08.282Z,95727.00
2019-01-23T08:28:37.729Z,95724.00
2019-01-23T08:31:07.159Z,95711.00
2019-01-23T08:33:36.503Z,95727.00
2019-01-23T08:36:05.967Z,95718.00
2019-01-23T08:38:35.330Z,95729.00
2019-01-23T08:41:04.775Z,95737.00
2019-01-23T08:43:34.160Z,95719.00
2019-01-23T08:46:03.531Z,95718.00
2019-01-23T08:48:34.247Z,95721.00
2019-01-23T08:51:03.906Z,95728.00
2019-01-23T08:53:33.268Z,95721.00
2019-01-23T08:56:02.640Z,95727.00
2019-01-23T08:58:32.009Z,95717.00
2019-01-23T09:01:01.362Z,95715.00
2019-01-23T09:03:32.126Z,95731.00
2019-01-23T09:06:01.329Z,95724.00
2019-01-23T09:08:37.450Z,95730.00
2019-01-23T09:11:01.769Z,95730.00
2019-01-23T09:13:31.799Z,95721.00
2019-01-23T09:16:01.154Z,95732.00
2019-01-23T09:18:30.502Z,95732.00
2019-01-23T09:20:59.711Z,95730.00
2019-01-23T09:23:29.053Z,95738.00
2019-01-23T09:25:58.445Z,95746.00
2019-01-23T09:28:27.842Z,95735.00
2019-01-23T09:31:04.208Z,95745.00
2019-01-23T09:33:47.178Z,95741.00
2019-01-23T09:36:38.551Z,95736.00
2019-01-23T09:39:33.155Z,95747.00
2019-01-23T09:42:24.851Z,95741.00
2019-01-23T09:45:22.503Z,95757.00
2019-01-23T09:48:02.110Z,95748.00
2019-01-23T09:50:39.461Z,95751.00
2019-01-23T09:53:21.881Z,95752.00
2019-01-23T09:55:51.349Z,95755.00
2019-01-23T09:58:20.704Z,95748.00
2019-01-23T10:00:50.098Z,95749.00
2019-01-23T10:03:23.126Z,95762.00
2019-01-23T10:05:50.581Z,95749.00
2019-01-23T10:08:19.903Z,95764.00
2019-01-23T10:10:49.545Z,95760.00
2019-01-23T10:13:18.884Z,95753.00
2019-01-23T10:15:49.281Z,95760.00
2019-01-23T10:18:18.646Z,95760.00
2019-01-23T10:20:48.032Z,95783.00
2019-01-23T10:23:17.339Z,95775.00
2019-01-23T10:25:46.726Z,95772.00
2019-01-23T10:28:16.154Z,95771.00
2019-01-23T10:30:45.511Z,95775.00
2019-01-23T10:33:15.593Z,95764.00
2019-01-23T10:35:44.971Z,95766.00
2019-01-23T10:38:14.285Z,95765.00
2019-01-23T10:40:43.674Z,95779.00
2019-01-23T10:43:13.115Z,95759.00
2019-01-23T10:45:42.475Z,95760.00
2019-01-23T10:48:11.983Z,95777.00
2019-01-23T10:50:41.416Z,95757.00
2019-01-23T10:53:11.134Z,95783.00
2019-01-23T10:55:40.862Z,95758.00
2019-01-23T10:58:10.239Z,95766.00
2019-01-23T11:00:40.150Z,95771.00
2019-01-23T11:03:10.067Z,95759.00
2019-01-23T11:05:39.744Z,95778.00
2019-01-23T11:08:09.112Z,95764.00
2019-01-23T11:10:38.495Z,95768.00
2019-01-23T11:13:07.840Z,95768.00
2019-01-23T11:15:37.206Z,95769.00
2019-01-23T11:18:07.301Z,95756.00
2019-01-23T11:20:36.734Z,95776.00
2019-01-23T11:23:06.158Z,95775.00
2019-01-23T11:25:35.538Z,95760.00
2019-01-23T11:28:05.146Z,95763.00
2019-01-23T11:30:34.513Z,95758.00
2019-01-23T11:33:04.943Z,95760.00
2019-01-23T11:35:34.314Z,95761.00
2019-01-23T11:38:03.681Z,95762.00
2019-01-23T11:40:33.533Z,95766.00
2019-01-23T11:43:02.901Z,95761.00
2019-01-23T11:45:32.269Z,95765.00
2019-01-23T11:48:01.638Z,95775.00
2019-01-23T11:50:31.008Z,95770.00
2019-01-23T11:53:00.374Z,95768.00
2019-01-23T11:55:30.206Z,95757.00
2019-01-23T11:57:59.545Z,95765.00
2019-01-23T12:00:30.556Z,95771.00
2019-01-23T12:03:00.370Z,95765.00
2019-01-23T12:05:29.738Z,95774.00
2019-01-23T12:07:59.083Z,95771.00
2019-01-23T12:10:28.451Z,95761.00
2019-01-23T12:12:57.803Z,95770.00
2019-01-23T12:15:27.239Z,95770.00
2019-01-23T12:17:56.626Z,95770.00
2019-01-23T12:20:26.036Z,95778.00
2019-01-23T12:22:55.456Z,95753.00
2019-01-23T12:25:25.141Z,95766.00
2019-01-23T12:27:54.518Z,95775.00
2019-01-23T12:30:33.416Z,95772.00
2019-01-23T12:33:02.928Z,95759.00
2019-01-23T12:35:32.306Z,95775.00
2019-01-23T12:38:01.695Z,95759.00
2019-01-23T12:40:31.064Z,95763.00
2019-01-23T12:43:00.484Z,95760.00
2019-01-23T12:45:30.275Z,95771.00
2019-01-23T12:47:59.620Z,95760.00
2019-01-23T12:50:32.217Z,95769.00
2019-01-23T12:53:01.588Z,95779.00
2019-01-23T12:55:31.037Z,95769.00
2019-01-23T12:58:00.869Z,95774.00
2019-01-23T13:00:32.611Z,95778.00
2019-01-23T13:03:02.023Z,95781.00
2019-01-23T13:05:31.510Z,95775.00
2019-01-23T13:08:00.954Z,95778.00
2019-01-23T13:10:30.411Z,95781.00
2019-01-23T13:12:59.930Z,95778.00
2019-01-23T13:15:29.439Z,95777.00
2019-01-23T13:17:58.949Z,95763.00
2019-01-23T13:20:28.756Z,95792.00
2019-01-23T13:22:58.607Z,95788.00
2019-01-23T13:25:29.926Z,95784.00
2019-01-23T13:28:01.781Z,95775.00
2019-01-23T13:30:31.174Z,95796.00
2019-01-23T13:33:00.610Z,95797.00
2019-01-23T13:35:34.404Z,95794.00
2019-01-23T13:38:06.393Z,95792.00
2019-01-23T13:40:37.682Z,95803.00
2019-01-23T13:43:07.905Z,95801.00
2019-01-23T13:45:37.307Z,95802.00
2019-01-23T13:48:07.693Z,95803.00
2019-01-23T13:50:37.058Z,95813.00
2019-01-23T13:53:06.435Z,95799.00
2019-01-23T13:55:35.881Z,95802.00
2019-01-23T13:58:05.654Z,95808.00
2019-01-23T14:00:41.435Z,95800.00
2019-01-23T14:03:11.040Z,95807.00
2019-01-23T14:05:41.063Z,95807.00
2019-01-23T14:08:10.894Z,95813.00
2019-01-23T14:10:40.255Z,95821.00
2019-01-23T14:13:09.667Z,95825.00
2019-01-23T14:15:40.562Z,95829.00
2019-01-23T14:18:10.152Z,95822.00
2019-01-23T14:20:39.579Z,95817.00
2019-01-23T14:23:08.955Z,95841.00
2019-01-23T14:25:38.327Z,95831.00
2019-01-23T14:28:07.894Z,95822.00
2019-01-23T14:30:43.403Z,95831.00
2019-01-23T14:33:12.840Z,95837.00
2019-01-23T14:35:42.367Z,95830.00
2019-01-23T14:38:12.392Z,95838.00
2019-01-23T14:40:41.749Z,95849.00
2019-01-23T14:43:11.097Z,95852.00
2019-01-23T14:45:41.661Z,95847.00
2019-01-23T14:48:11.024Z,95848.00
2019-01-23T14:50:40.395Z,95868.00
2019-01-23T14:53:09.777Z,95857.00
2019-01-23T14:55:39.152Z,95858.00
2019-01-23T14:58:08.523Z,95859.00
2019-01-23T15:00:37.925Z,95867.00
2019-01-23T15:03:07.910Z,95864.00
2019-01-23T15:05:37.291Z,95872.00
2019-01-23T15:08:06.769Z,95857.00
2019-01-23T15:10:36.233Z,95865.00
2019-01-23T15:13:06.623Z,95871.00
2019-01-23T15:15:36.041Z,95872.00
2019-01-23T15:18:05.672Z,95867.00
2019-01-23T15:20:39.480Z,95872.00
2019-01-23T15:23:08.882Z,95877.00
2019-01-23T15:25:38.250Z,95875.00
2019-01-23T15:28:07.792Z,95874.00
2019-01-23T15:30:37.252Z,95875.00
2019-01-23T15:33:06.606Z,95875.00
2019-01-23T15:35:35.952Z,95879.00
2019-01-23T15:38:05.458Z,95878.00
2019-01-23T15:40:35.962Z,95879.00
2019-01-23T15:43:05.440Z,95892.00
2019-01-23T15:45:35.219Z,95890.00
2019-01-23T15:48:04.721Z,95909.00
2019-01-23T15:50:34.234Z,95909.00
2019-01-23T15:53:03.696Z,95916.00
2019-01-23T15:55:33.340Z,95910.00
2019-01-23T15:58:02.716Z,95916.00
2019-01-23T16:00:33.355Z,95919.00
2019-01-23T16:03:02.787Z,95923.00
2019-01-23T16:05:32.728Z,95928.00
2019-01-23T16:08:02.132Z,95925.00
2019-01-23T16:10:31.641Z,95930.00
2019-01-23T16:13:01.001Z,95935.00
2019-01-23T16:15:30.928Z,95930.00
2019-01-23T16:18:00.314Z,95939.00
2019-01-23T16:20:29.959Z,95916.00
2019-01-23T16:22:59.364Z,95941.00
2019-01-23T16:25:28.740Z,95933.00
2019-01-23T16:27:58.192Z,95961.00
2019-01-23T16:30:37.023Z,95958.00
2019-01-23T16:33:06.463Z,95947.00
2019-01-23T16:35:38.891Z,95948.00
2019-01-23T16:38:07.377Z,95950.00
2019-01-23T16:40:36.748Z,95957.00
2019-01-23T16:43:06.446Z,95911.00
2019-01-23T16:48:50.423Z,95976.00
2019-01-23T16:51:19.796Z,95970.00
2019-01-23T16:53:49.167Z,95966.00
2019-01-23T16:56:19.404Z,95982.00
2019-01-23T16:58:48.829Z,95970.00
2019-01-23T17:01:18.179Z,95979.00
2019-01-23T17:03:47.556Z,95981.00
2019-01-23T17:06:19.559Z,95983.00
2019-01-23T17:08:48.915Z,95991.00
2019-01-23T17:11:18.348Z,95984.00
2019-01-23T17:13:47.705Z,95991.00
2019-01-23T17:16:17.064Z,95991.00
2019-01-23T17:18:46.459Z,96006.00
2019-01-23T17:21:15.817Z,96002.00
2019-01-23T17:23:45.187Z,96002.00
2019-01-23T17:26:14.576Z,96000.00
2019-01-23T17:28:43.935Z,96007.00
2019-01-23T17:31:13.336Z,96019.00
2019-01-23T17:33:43.046Z,96021.00
2019-01-23T17:36:12.408Z,96020.00
2019-01-23T17:38:41.764Z,96021.00
2019-01-23T17:41:11.159Z,96022.00
2019-01-23T17:43:40.895Z,96037.00
2019-01-23T17:46:10.254Z,96031.00
2019-01-23T17:48:39.828Z,96042.00
2019-01-23T17:51:09.191Z,96037.00
2019-01-23T17:53:38.582Z,96033.00
2019-01-23T17:56:07.984Z,96041.00
2019-01-23T17:58:37.355Z,96047.00
2019-01-23T18:01:06.784Z,96054.00
2019-01-23T18:03:36.169Z,96052.00
2019-01-23T18:06:05.789Z,96052.00
2019-01-23T18:08:35.817Z,96042.00
2019-01-23T18:11:05.608Z,96054.00
2019-01-23T18:13:35.090Z,96060.00
2019-01-23T18:16:05.970Z,96050.00
2019-01-23T18:18:35.376Z,96066.00
2019-01-23T18:21:04.970Z,96070.00
2019-01-23T18:23:34.366Z,96064.00
2019-01-23T18:26:04.344Z,96068.00
2019-01-23T18:28:33.679Z,96068.00
2019-01-23T18:31:10.422Z,96074.00
2019-01-23T18:33:47.228Z,96075.00
2019-01-23T18:36:24.629Z,96073.00
2019-01-23T18:39:07.630Z,96087.00
2019-01-23T18:41:56.251Z,96084.00
2019-01-23T18:44:48.277Z,96102.00
2019-01-23T18:47:44.613Z,96090.00
2019-01-23T18:50:18.564Z,96102.00
2019-01-23T18:52:47.936Z,96111.00
2019-01-23T18:55:20.951Z,96105.00
2019-01-23T18:57:50.316Z,96110.00
2019-01-23T19:00:24.000Z,96119.00
2019-01-23T19:02:53.389Z,96112.00
2019-01-23T19:05:22.814Z,96126.00
2019-01-23T19:07:52.235Z,96127.00
2019-01-23T19:10:22.374Z,96132.00
2019-01-23T19:12:51.732Z,96122.00
2019-01-23T19:15:21.531Z,96130.00
2019-01-23T19:17:50.908Z,96131.00
2019-01-23T19:20:22.103Z,96117.00
2019-01-23T19:22:51.456Z,96126.00
2019-01-23T19:25:20.899Z,96128.00
2019-01-23T19:27:50.277Z,96123.00
2019-01-23T19:30:22.606Z,96121.00
2019-01-23T19:32:52.078Z,96127.00
2019-01-23T19:35:21.505Z,96139.00
2019-01-23T19:37:50.935Z,96124.00
2019-01-23T19:40:20.348Z,96123.00
2019-01-23T19:42:49.784Z,96130.00
2019-01-23T19:45:21.750Z,96137.00
2019-01-23T19:47:51.182Z,96129.00
2019-01-23T19:50:20.643Z,96121.00
2019-01-23T19:52:50.138Z,96134.00
2019-01-23T19:55:19.554Z,96136.00
2019-01-23T19:57:48.909Z,96142.00
2019-01-23T20:00:21.288Z,96134.00
2019-01-23T20:02:50.683Z,96137.00
2019-01-23T20:05:24.164Z,96170.00
2019-01-23T20:07:54.171Z,96152.00
2019-01-23T20:10:25.556Z,96152.00
2019-01-23T20:12:56.370Z,96159.00
2019-01-23T20:15:25.719Z,96161.00
2019-01-23T20:17:56.803Z,96174.00
2019-01-23T20:20:26.154Z,96164.00
2019-01-23T20:22:55.508Z,96178.00
2019-01-23T20:25:26.891Z,96189.00
2019-01-23T20:27:56.366Z,96173.00
2019-01-23T20:30:37.603Z,96169.00
2019-01-23T20:33:07.124Z,96178.00
2019-01-23T20:35:36.481Z,96179.00
2019-01-23T20:38:06.125Z,96182.00
2019-01-23T20:40:35.476Z,96184.00
2019-01-23T20:43:05.585Z,96177.00
2019-01-23T20:45:35.682Z,96185.00
2019-01-23T20:48:06.748Z,96188.00
2019-01-23T20:50:36.171Z,96201.00
2019-01-23T20:53:06.069Z,96199.00
2019-01-23T20:55:35.457Z,96191.00
2019-01-23T20:58:05.284Z,96193.00
2019-01-23T21:00:35.546Z,96198.00
2019-01-23T21:03:05.316Z,96200.00
2019-01-23T21:05:34.668Z,96200.00
2019-01-23T21:08:04.419Z,96200.00
2019-01-23T21:10:33.767Z,96205.00
2019-01-23T21:13:03.132Z,96213.00
2019-01-23T21:15:33.725Z,96211.00
2019-01-23T21:18:03.334Z,96209.00
2019-01-23T21:20:32.828Z,96227.00
2019-01-23T21:23:02.223Z,96235.00
2019-01-23T21:25:31.583Z,96216.00
2019-01-23T21:28:00.956Z,96219.00
2019-01-23T21:30:30.734Z,96231.00
2019-01-23T21:33:00.090Z,96228.00
2019-01-23T21:35:29.480Z,96243.00
2019-01-23T21:37:58.879Z,96244.00
2019-01-23T21:40:31.054Z,96256.00
2019-01-23T21:43:00.471Z,96259.00
2019-01-23T21:45:30.495Z,96245.00
2019-01-23T21:47:59.846Z,96249.00
2019-01-23T21:50:29.223Z,96255.00
2019-01-23T21:52:58.607Z,96248.00
2019-01-23T21:55:27.973Z,96250.00
2019-01-23T21:57:57.488Z,96241.00
2019-01-23T22:00:37.012Z,96248.00
2019-01-23T22:03:09.207Z,96239.00
2019-01-23T22:05:38.785Z,96242.00
2019-01-23T22:08:08.761Z,96246.00
2019-01-23T22:10:38.215Z,96249.00
2019-01-23T22:13:07.763Z,96241.00
2019-01-23T22:15:37.735Z,96249.00
2019-01-23T22:18:08.335Z,96249.00
2019-01-23T22:20:37.719Z,96248.00
2019-01-23T22:23:07.201Z,96258.00
2019-01-23T22:25:36.573Z,96257.00
2019-01-23T22:28:06.173Z,96250.00
2019-01-23T22:30:35.920Z,96248.00
2019-01-23T22:33:06.083Z,96270.00
2019-01-23T22:35:35.450Z,96266.00
2019-01-23T22:38:05.770Z,96266.00
2019-01-23T22:40:35.140Z,96254.00
2019-01-23T22:43:05.021Z,96257.00
2019-01-23T22:45:34.430Z,96271.00
2019-01-23T22:48:04.069Z,96266.00
2019-01-23T22:50:33.445Z,96287.00
2019-01-23T22:53:03.298Z,96278.00
2019-01-23T22:55:33.063Z,96284.00
2019-01-23T22:58:02.467Z,96294.00
2019-01-23T23:00:54.597Z,96305.00
2019-01-23T23:03:23.944Z,96294.00
2019-01-23T23:05:53.314Z,96308.00
2019-01-23T23:08:23.040Z,96306.00
2019-01-23T23:10:52.432Z,96305.00
2019-01-23T23:13:21.790Z,96322.00
2019-01-23T23:15:51.245Z,96312.00
2019-01-23T23:18:20.630Z,96318.00
2019-01-23T23:20:51.452Z,96313.00
2019-01-23T23:23:20.833Z,96339.00
2019-01-23T23:25:50.207Z,96335.00
2019-01-23T23:28:25.755Z,96340.00
2019-01-23T23:30:51.142Z,96344.00
2019-01-23T23:33:20.483Z,96352.00
2019-01-23T23:35:49.867Z,96339.00
2019-01-23T23:38:19.252Z,96349.00
2019-01-23T23:40:48.613Z,96360.00
2019-01-23T23:43:18.003Z,96366.00
2019-01-23T23:45:47.377Z,96365.00
2019-01-23T23:48:16.738Z,96374.00
2019-01-23T23:50:46.099Z,96378.00
2019-01-23T23:53:15.566Z,96367.00
2019-01-23T23:55:44.942Z,96372.00
2019-01-23T23:58:14.303Z,96388.00
